createdAt,value
2022-09-18T00:04:44.228Z,10.70
2022-09-18T00:09:47.743Z,10.00
2022-09-18T00:19:54.056Z,10.70
2022-09-18T00:30:00.575Z,9.80
2022-09-18T00:35:04.505Z,11.00
2022-09-18T00:40:08.182Z,10.70
2022-09-18T00:45:11.940Z,8.20
2022-09-18T00:50:20.678Z,12.90
2022-09-18T00:55:33.307Z,11.00
2022-09-18T01:00:36.578Z,10.10
2022-09-18T01:11:50.720Z,9.70
2022-09-18T01:17:26.085Z,9.10
2022-09-18T01:22:47.005Z,7.70
2022-09-18T01:27:59.124Z,9.30
2022-09-18T01:33:18.001Z,8.60
2022-09-18T01:38:23.661Z,10.30
2022-09-18T01:43:30.046Z,13.20
2022-09-18T01:48:39.194Z,11.20
2022-09-18T01:53:47.110Z,8.80
2022-09-18T01:58:52.807Z,13.30
2022-09-18T02:04:02.642Z,13.00
2022-09-18T02:09:08.323Z,10.20
2022-09-18T02:14:17.147Z,8.40
2022-09-18T02:19:24.965Z,14.30
2022-09-18T02:24:33.394Z,11.00
2022-09-18T02:29:37.375Z,11.70
2022-09-18T02:34:40.527Z,9.50
2022-09-18T02:40:10.525Z,12.30
2022-09-18T02:45:44.083Z,10.10
2022-09-18T02:51:04.790Z,10.90
2022-09-18T02:56:18.967Z,12.20
2022-09-18T03:01:25.653Z,17.20
2022-09-18T03:06:28.657Z,10.70
2022-09-18T03:11:31.763Z,12.50
2022-09-18T03:16:34.934Z,15.90
2022-09-18T03:21:38.079Z,11.30
2022-09-18T03:26:41.183Z,12.20
2022-09-18T03:31:44.572Z,11.10
2022-09-18T03:36:47.803Z,12.90
2022-09-18T03:41:51.012Z,8.30
2022-09-18T03:46:54.208Z,12.70
2022-09-18T03:51:57.427Z,11.30
2022-09-18T03:57:00.635Z,10.50
2022-09-18T04:02:03.847Z,11.30
2022-09-18T04:12:11.696Z,9.50
2022-09-18T04:17:15.209Z,11.00
2022-09-18T04:22:19.238Z,11.10
2022-09-18T04:27:22.341Z,14.40
2022-09-18T04:32:25.458Z,13.80
2022-09-18T04:37:28.527Z,13.10
2022-09-18T04:42:32.807Z,11.50
2022-09-18T04:47:35.952Z,11.40
2022-09-18T04:52:39.202Z,9.30
2022-09-18T04:57:42.373Z,8.60
2022-09-18T05:02:45.380Z,8.50
2022-09-18T05:07:48.548Z,9.40
2022-09-18T05:18:02.271Z,7.90
2022-09-18T05:23:07.340Z,8.60
2022-09-18T05:28:13.534Z,8.80
2022-09-18T05:33:16.856Z,12.20
2022-09-18T05:38:20.130Z,10.40
2022-09-18T05:43:23.439Z,9.60
2022-09-18T05:48:26.658Z,9.90
2022-09-18T05:53:29.884Z,7.60
2022-09-18T06:03:36.388Z,10.10
2022-09-18T06:08:40.125Z,9.30
2022-09-18T06:18:47.666Z,10.00
2022-09-18T06:23:50.768Z,10.50
2022-09-18T06:28:53.874Z,9.80
2022-09-18T06:33:56.981Z,9.50
2022-09-18T06:39:00.146Z,8.70
2022-09-18T06:44:03.500Z,7.40
2022-09-18T06:49:07.016Z,9.40
2022-09-18T06:54:10.497Z,8.10
2022-09-18T06:59:14.315Z,8.20
2022-09-18T07:04:18.351Z,8.00
2022-09-18T07:09:21.544Z,8.80
2022-09-18T07:14:24.556Z,9.30
2022-09-18T07:19:27.980Z,8.10
2022-09-18T07:24:31.312Z,8.40
2022-09-18T07:29:34.354Z,9.80
2022-09-18T07:34:37.547Z,7.80
2022-09-18T07:39:40.725Z,8.00
2022-09-18T07:44:44.239Z,7.10
2022-09-18T07:49:47.631Z,7.20
2022-09-18T07:54:51.910Z,8.60
2022-09-18T07:59:55.117Z,7.10
2022-09-18T08:10:04.433Z,6.80
2022-09-18T08:15:11.870Z,6.80
2022-09-18T08:20:15.858Z,7.80
2022-09-18T08:25:21.563Z,6.20
2022-09-18T08:30:25.453Z,6.10
2022-09-18T08:35:32.442Z,6.50
2022-09-18T08:40:40.247Z,5.90
2022-09-18T08:46:05.779Z,7.40
2022-09-18T08:51:35.885Z,7.90
2022-09-18T08:56:46.440Z,7.70
2022-09-18T09:02:20.774Z,7.60
2022-09-18T09:07:59.044Z,13.30
2022-09-18T09:13:31.131Z,10.00
2022-09-18T09:18:42.268Z,8.00
2022-09-18T09:24:32.834Z,10.60
2022-09-18T09:29:42.252Z,8.10
2022-09-18T09:34:53.708Z,9.70
2022-09-18T09:40:11.020Z,9.40
2022-09-18T09:45:27.736Z,8.30
2022-09-18T09:50:43.689Z,9.20
2022-09-18T09:55:58.888Z,13.00
2022-09-18T10:01:19.906Z,7.40
2022-09-18T10:06:54.043Z,8.20
2022-09-18T10:17:13.260Z,10.90
2022-09-18T10:22:23.483Z,10.70
2022-09-18T10:27:28.322Z,8.80
2022-09-18T10:32:42.038Z,10.60
2022-09-18T10:37:45.940Z,11.70
2022-09-18T10:42:55.801Z,11.50
2022-09-18T10:48:08.065Z,8.80
2022-09-18T10:53:39.069Z,10.60
2022-09-18T10:58:45.366Z,12.10
2022-09-18T11:04:07.326Z,8.70
2022-09-18T11:09:12.678Z,10.90
2022-09-18T11:14:25.705Z,12.20
2022-09-18T11:19:34.463Z,9.50
2022-09-18T11:24:47.185Z,8.70
2022-09-18T11:29:53.592Z,8.80
2022-09-18T11:35:08.441Z,10.00
2022-09-18T11:40:24.750Z,12.10
2022-09-18T11:45:42.494Z,9.10
2022-09-18T11:50:48.386Z,8.90
2022-09-18T11:56:11.256Z,10.30
2022-09-18T12:06:43.263Z,7.70
2022-09-18T12:12:20.015Z,11.30
2022-09-18T12:17:37.437Z,9.20
2022-09-18T12:22:53.041Z,7.50
2022-09-18T12:28:11.264Z,9.30
2022-09-18T12:33:34.335Z,7.30
2022-09-18T12:38:58.297Z,7.70
2022-09-18T12:44:45.863Z,7.60
2022-09-18T12:50:16.831Z,8.80
2022-09-18T12:56:00.533Z,6.70
2022-09-18T13:01:38.085Z,8.30
2022-09-18T13:06:53.609Z,8.60
2022-09-18T13:12:20.926Z,7.00
2022-09-18T13:17:34.400Z,6.80
2022-09-18T13:22:40.932Z,6.80
2022-09-18T13:27:46.834Z,8.10
2022-09-18T13:32:51.072Z,10.40
2022-09-18T13:38:17.025Z,8.10
2022-09-18T13:43:32.413Z,7.40
2022-09-18T13:48:46.477Z,7.40
2022-09-18T13:54:17.858Z,7.30
2022-09-18T13:59:24.223Z,7.40
2022-09-18T14:04:40.366Z,11.30
2022-09-18T14:09:50.578Z,10.90
2022-09-18T14:15:11.623Z,7.80
2022-09-18T14:20:22.724Z,7.70
2022-09-18T14:25:47.251Z,9.70
2022-09-18T14:31:15.975Z,10.50
2022-09-18T14:36:22.912Z,8.20
2022-09-18T14:41:32.828Z,10.50
2022-09-18T14:46:53.450Z,6.80
2022-09-18T14:52:03.970Z,7.50
2022-09-18T14:57:13.556Z,8.00
2022-09-18T15:02:28.163Z,7.90
2022-09-18T15:07:32.445Z,7.00
2022-09-18T15:12:38.118Z,14.80
2022-09-18T15:17:55.050Z,7.50
2022-09-18T15:22:59.183Z,6.10
2022-09-18T15:28:07.311Z,5.70
2022-09-18T15:33:20.298Z,4.50
2022-09-18T15:38:38.526Z,5.80
2022-09-18T15:43:43.853Z,5.10
2022-09-18T15:48:51.491Z,6.00
2022-09-18T15:54:14.053Z,5.50
2022-09-18T15:59:27.501Z,5.20
2022-09-18T16:04:41.666Z,7.80
2022-09-18T16:09:50.319Z,5.80
2022-09-18T16:15:18.473Z,6.10
2022-09-18T16:20:26.826Z,6.90
2022-09-18T16:25:36.332Z,6.30
2022-09-18T16:30:44.899Z,6.80
2022-09-18T16:35:58.256Z,6.00
2022-09-18T16:41:07.695Z,4.60
2022-09-18T16:46:14.691Z,4.30
2022-09-18T16:51:19.262Z,3.60
2022-09-18T16:56:53.862Z,1.90
2022-09-18T17:02:04.521Z,4.70
2022-09-18T17:07:08.997Z,10.60
2022-09-18T17:12:14.906Z,3.20
2022-09-18T17:17:22.605Z,2.50
2022-09-18T17:22:26.879Z,1.90
2022-09-18T17:27:31.038Z,35.30
2022-09-18T17:32:41.245Z,44.90
2022-09-18T17:37:48.431Z,10.50
2022-09-18T17:42:53.589Z,15.40
2022-09-18T17:47:59.510Z,14.70
2022-09-18T17:53:05.753Z,2.50
2022-09-18T17:58:12.109Z,1.90
2022-09-18T18:03:17.179Z,1.80
2022-09-18T18:08:22.145Z,1.60
2022-09-18T18:13:27.343Z,2.00
2022-09-18T18:18:34.551Z,5.30
2022-09-18T18:23:40.679Z,1.70
2022-09-18T18:28:47.431Z,1.60
2022-09-18T18:33:58.498Z,1.80
2022-09-18T18:39:05.996Z,1.40
2022-09-18T18:44:12.199Z,1.80
2022-09-18T18:49:18.545Z,1.80
2022-09-18T18:54:23.674Z,1.90
2022-09-18T18:59:29.372Z,1.50
2022-09-18T19:04:39.936Z,1.70
2022-09-18T19:09:44.173Z,1.60
2022-09-18T19:14:48.813Z,1.30
2022-09-18T19:19:53.538Z,2.50
2022-09-18T19:24:58.780Z,1.70
2022-09-18T19:30:28.571Z,1.70
2022-09-18T19:35:36.988Z,1.70
2022-09-18T19:40:43.660Z,1.80
2022-09-18T19:45:51.013Z,2.20
2022-09-18T19:50:56.599Z,2.20
2022-09-18T19:56:00.749Z,1.50
2022-09-18T20:01:12.003Z,4.00
2022-09-18T20:06:16.125Z,1.70
2022-09-18T20:11:19.855Z,2.10
2022-09-18T20:16:23.212Z,2.80
2022-09-18T20:21:27.076Z,1.90
2022-09-18T20:26:31.155Z,2.00
2022-09-18T20:31:37.279Z,3.30
2022-09-18T20:36:40.481Z,2.70
2022-09-18T20:41:44.119Z,2.30
2022-09-18T20:46:51.012Z,2.50
2022-09-18T20:51:55.103Z,3.80
2022-09-18T20:57:00.940Z,2.40
2022-09-18T21:02:08.266Z,2.20
2022-09-18T21:07:11.854Z,3.50
2022-09-18T21:12:16.194Z,3.10
2022-09-18T21:17:19.704Z,2.60
2022-09-18T21:27:26.897Z,2.90
2022-09-18T21:37:34.364Z,3.30
2022-09-18T21:47:42.135Z,1.90
2022-09-18T21:52:45.394Z,2.90
2022-09-18T22:02:55.031Z,2.40
2022-09-18T22:07:58.549Z,3.60
2022-09-18T22:18:05.575Z,2.40
2022-09-18T22:23:08.804Z,2.20
2022-09-18T22:28:12.092Z,2.10
2022-09-18T22:38:18.713Z,2.20
2022-09-18T22:48:25.342Z,2.60
2022-09-18T22:53:28.645Z,1.80
2022-09-18T22:58:32.264Z,2.60
2022-09-18T23:03:37.006Z,2.50
2022-09-18T23:08:40.829Z,3.20
2022-09-18T23:13:57.895Z,3.00
2022-09-18T23:19:04.902Z,2.20
2022-09-18T23:24:10.867Z,2.80
2022-09-18T23:29:17.699Z,3.50
2022-09-18T23:34:27.653Z,3.10
2022-09-18T23:39:34.042Z,3.30
2022-09-18T23:44:37.355Z,2.90
2022-09-18T23:54:43.185Z,5.90
